sensor_id;sensor_type;location;lat;lon;timestamp;P1;durP1;ratioP1;P2;durP2;ratioP2
26435;SDS011;15351;52.408;16.826;2023-02-28T00:00:25;58.80;;;30.60;;
26435;SDS011;15351;52.408;16.826;2023-02-28T00:03:14;56.60;;;33.40;;
26435;SDS011;15351;52.408;16.826;2023-02-28T00:05:41;56.00;;;33.00;;
26435;SDS011;15351;52.408;16.826;2023-02-28T00:08:10;57.20;;;33.60;;
26435;SDS011;15351;52.408;16.826;2023-02-28T00:10:41;57.20;;;32.60;;
26435;SDS011;15351;52.408;16.826;2023-02-28T00:13:33;55.80;;;32.50;;
26435;SDS011;15351;52.408;16.826;2023-02-28T00:16:15;56.30;;;33.00;;
26435;SDS011;15351;52.408;16.826;2023-02-28T00:18:53;59.70;;;30.40;;
26435;SDS011;15351;52.408;16.826;2023-02-28T00:21:20;55.90;;;31.20;;
26435;SDS011;15351;52.408;16.826;2023-02-28T00:23:46;51.00;;;29.80;;
26435;SDS011;15351;52.408;16.826;2023-02-28T00:26:14;46.30;;;28.20;;
26435;SDS011;15351;52.408;16.826;2023-02-28T00:28:44;46.50;;;27.50;;
26435;SDS011;15351;52.408;16.826;2023-02-28T00:31:11;50.80;;;29.70;;
26435;SDS011;15351;52.408;16.826;2023-02-28T00:33:38;67.70;;;34.50;;
26435;SDS011;15351;52.408;16.826;2023-02-28T00:36:08;84.10;;;34.40;;
26435;SDS011;15351;52.408;16.826;2023-02-28T00:38:37;88.30;;;37.60;;
26435;SDS011;15351;52.408;16.826;2023-02-28T00:41:05;79.70;;;38.70;;
26435;SDS011;15351;52.408;16.826;2023-02-28T00:43:40;76.80;;;37.80;;
26435;SDS011;15351;52.408;16.826;2023-02-28T00:46:08;76.40;;;39.10;;
26435;SDS011;15351;52.408;16.826;2023-02-28T00:48:37;72.50;;;37.80;;
26435;SDS011;15351;52.408;16.826;2023-02-28T00:51:04;76.20;;;39.50;;
26435;SDS011;15351;52.408;16.826;2023-02-28T00:53:32;77.40;;;37.30;;
26435;SDS011;15351;52.408;16.826;2023-02-28T00:56:02;81.10;;;38.00;;
26435;SDS011;15351;52.408;16.826;2023-02-28T00:58:31;77.90;;;42.30;;
26435;SDS011;15351;52.408;16.826;2023-02-28T01:01:01;83.70;;;44.50;;
26435;SDS011;15351;52.408;16.826;2023-02-28T01:03:29;90.80;;;47.50;;
26435;SDS011;15351;52.408;16.826;2023-02-28T01:05:56;88.20;;;47.80;;
26435;SDS011;15351;52.408;16.826;2023-02-28T01:08:28;92.60;;;47.20;;
26435;SDS011;15351;52.408;16.826;2023-02-28T01:10:54;89.90;;;43.00;;
26435;SDS011;15351;52.408;16.826;2023-02-28T01:13:21;85.90;;;40.40;;
26435;SDS011;15351;52.408;16.826;2023-02-28T01:15:51;81.40;;;44.30;;
26435;SDS011;15351;52.408;16.826;2023-02-28T01:18:22;83.90;;;45.40;;
26435;SDS011;15351;52.408;16.826;2023-02-28T01:20:54;85.20;;;45.80;;
26435;SDS011;15351;52.408;16.826;2023-02-28T01:23:22;88.60;;;45.60;;
26435;SDS011;15351;52.408;16.826;2023-02-28T01:25:50;83.70;;;45.00;;
26435;SDS011;15351;52.408;16.826;2023-02-28T01:28:21;90.60;;;42.40;;
26435;SDS011;15351;52.408;16.826;2023-02-28T01:30:48;79.80;;;40.10;;
26435;SDS011;15351;52.408;16.826;2023-02-28T01:33:16;80.90;;;44.30;;
26435;SDS011;15351;52.408;16.826;2023-02-28T01:35:42;84.50;;;45.20;;
26435;SDS011;15351;52.408;16.826;2023-02-28T01:38:14;80.50;;;45.40;;
26435;SDS011;15351;52.408;16.826;2023-02-28T01:40:41;86.60;;;45.90;;
26435;SDS011;15351;52.408;16.826;2023-02-28T01:43:12;83.10;;;46.30;;
26435;SDS011;15351;52.408;16.826;2023-02-28T01:45:55;89.00;;;42.90;;
26435;SDS011;15351;52.408;16.826;2023-02-28T01:48:27;82.10;;;40.10;;
26435;SDS011;15351;52.408;16.826;2023-02-28T01:51:03;76.40;;;42.20;;
26435;SDS011;15351;52.408;16.826;2023-02-28T01:53:41;80.90;;;44.20;;
26435;SDS011;15351;52.408;16.826;2023-02-28T01:56:20;78.80;;;44.00;;
26435;SDS011;15351;52.408;16.826;2023-02-28T01:58:56;79.80;;;44.10;;
26435;SDS011;15351;52.408;16.826;2023-02-28T02:01:23;78.00;;;43.90;;
26435;SDS011;15351;52.408;16.826;2023-02-28T02:03:54;82.60;;;41.50;;
26435;SDS011;15351;52.408;16.826;2023-02-28T02:06:27;78.00;;;39.50;;
26435;SDS011;15351;52.408;16.826;2023-02-28T02:08:56;75.60;;;41.90;;
26435;SDS011;15351;52.408;16.826;2023-02-28T02:11:23;78.60;;;44.30;;
26435;SDS011;15351;52.408;16.826;2023-02-28T02:19:53;79.40;;;42.10;;
26435;SDS011;15351;52.408;16.826;2023-02-28T02:26:27;78.10;;;41.50;;
26435;SDS011;15351;52.408;16.826;2023-02-28T02:28:49;74.60;;;41.60;;
26435;SDS011;15351;52.408;16.826;2023-02-28T02:34:25;73.20;;;41.80;;
26435;SDS011;15351;52.408;16.826;2023-02-28T02:37:38;74.70;;;38.40;;
26435;SDS011;15351;52.408;16.826;2023-02-28T02:40:13;74.30;;;36.80;;
26435;SDS011;15351;52.408;16.826;2023-02-28T02:43:16;69.10;;;39.10;;
26435;SDS011;15351;52.408;16.826;2023-02-28T02:45:52;70.00;;;39.90;;
26435;SDS011;15351;52.408;16.826;2023-02-28T02:48:27;69.80;;;38.90;;
26435;SDS011;15351;52.408;16.826;2023-02-28T02:51:07;73.00;;;41.20;;
26435;SDS011;15351;52.408;16.826;2023-02-28T02:57:06;71.80;;;35.90;;
26435;SDS011;15351;52.408;16.826;2023-02-28T02:59:40;65.20;;;36.90;;
26435;SDS011;15351;52.408;16.826;2023-02-28T03:02:12;63.50;;;37.60;;
26435;SDS011;15351;52.408;16.826;2023-02-28T03:04:48;69.10;;;38.10;;
26435;SDS011;15351;52.408;16.826;2023-02-28T03:07:21;65.50;;;37.40;;
26435;SDS011;15351;52.408;16.826;2023-02-28T03:09:55;69.00;;;40.00;;
26435;SDS011;15351;52.408;16.826;2023-02-28T03:12:31;69.20;;;35.80;;
26435;SDS011;15351;52.408;16.826;2023-02-28T03:15:27;71.70;;;34.50;;
26435;SDS011;15351;52.408;16.826;2023-02-28T03:18:26;65.80;;;38.00;;
26435;SDS011;15351;52.408;16.826;2023-02-28T03:21:06;63.80;;;37.90;;
26435;SDS011;15351;52.408;16.826;2023-02-28T03:26:26;67.10;;;38.30;;
26435;SDS011;15351;52.408;16.826;2023-02-28T03:28:57;66.80;;;38.00;;
26435;SDS011;15351;52.408;16.826;2023-02-28T03:31:58;67.90;;;33.90;;
26435;SDS011;15351;52.408;16.826;2023-02-28T03:34:34;61.70;;;35.00;;
26435;SDS011;15351;52.408;16.826;2023-02-28T03:37:08;63.70;;;36.70;;
26435;SDS011;15351;52.408;16.826;2023-02-28T03:39:41;66.90;;;37.80;;
26435;SDS011;15351;52.408;16.826;2023-02-28T03:42:15;67.10;;;39.20;;
26435;SDS011;15351;52.408;16.826;2023-02-28T03:44:56;65.30;;;38.10;;
26435;SDS011;15351;52.408;16.826;2023-02-28T03:47:28;69.80;;;35.40;;
26435;SDS011;15351;52.408;16.826;2023-02-28T03:50:18;68.60;;;33.60;;
26435;SDS011;15351;52.408;16.826;2023-02-28T03:53:24;64.20;;;35.80;;
26435;SDS011;15351;52.408;16.826;2023-02-28T03:56:02;68.10;;;36.80;;
26435;SDS011;15351;52.408;16.826;2023-02-28T04:02:07;63.50;;;36.90;;
26435;SDS011;15351;52.408;16.826;2023-02-28T04:04:34;65.30;;;34.80;;
26435;SDS011;15351;52.408;16.826;2023-02-28T04:07:06;65.30;;;33.70;;
26435;SDS011;15351;52.408;16.826;2023-02-28T04:09:47;64.70;;;35.20;;
26435;SDS011;15351;52.408;16.826;2023-02-28T04:12:16;62.50;;;35.60;;
26435;SDS011;15351;52.408;16.826;2023-02-28T04:14:43;63.90;;;35.70;;
26435;SDS011;15351;52.408;16.826;2023-02-28T04:17:09;69.40;;;37.30;;
26435;SDS011;15351;52.408;16.826;2023-02-28T04:19:36;74.00;;;38.50;;
26435;SDS011;15351;52.408;16.826;2023-02-28T04:22:03;80.40;;;35.50;;
26435;SDS011;15351;52.408;16.826;2023-02-28T04:24:31;70.70;;;33.50;;
26435;SDS011;15351;52.408;16.826;2023-02-28T04:26:59;64.80;;;35.70;;
26435;SDS011;15351;52.408;16.826;2023-02-28T04:29:30;66.90;;;36.90;;
26435;SDS011;15351;52.408;16.826;2023-02-28T04:32:00;66.50;;;37.20;;
26435;SDS011;15351;52.408;16.826;2023-02-28T04:34:28;66.90;;;37.20;;
26435;SDS011;15351;52.408;16.826;2023-02-28T04:36:57;63.00;;;35.40;;
26435;SDS011;15351;52.408;16.826;2023-02-28T04:39:29;68.60;;;33.70;;
26435;SDS011;15351;52.408;16.826;2023-02-28T04:41:56;65.10;;;33.00;;
26435;SDS011;15351;52.408;16.826;2023-02-28T04:44:26;67.40;;;36.00;;
26435;SDS011;15351;52.408;16.826;2023-02-28T04:46:54;62.10;;;34.90;;
26435;SDS011;15351;52.408;16.826;2023-02-28T04:49:21;65.70;;;35.60;;
26435;SDS011;15351;52.408;16.826;2023-02-28T04:52:09;66.50;;;37.00;;
26435;SDS011;15351;52.408;16.826;2023-02-28T04:54:36;64.10;;;36.40;;
26435;SDS011;15351;52.408;16.826;2023-02-28T04:57:05;65.80;;;32.20;;
26435;SDS011;15351;52.408;16.826;2023-02-28T04:59:33;62.30;;;31.30;;
26435;SDS011;15351;52.408;16.826;2023-02-28T05:02:00;62.20;;;34.80;;
26435;SDS011;15351;52.408;16.826;2023-02-28T05:04:33;62.30;;;34.90;;
26435;SDS011;15351;52.408;16.826;2023-02-28T05:07:03;63.40;;;35.70;;
26435;SDS011;15351;52.408;16.826;2023-02-28T05:09:30;62.80;;;35.90;;
26435;SDS011;15351;52.408;16.826;2023-02-28T05:12:00;66.30;;;36.10;;
26435;SDS011;15351;52.408;16.826;2023-02-28T05:14:27;71.40;;;33.20;;
26435;SDS011;15351;52.408;16.826;2023-02-28T05:16:55;66.30;;;31.90;;
26435;SDS011;15351;52.408;16.826;2023-02-28T05:19:22;58.00;;;33.60;;
26435;SDS011;15351;52.408;16.826;2023-02-28T05:21:50;62.90;;;34.70;;
26435;SDS011;15351;52.408;16.826;2023-02-28T05:24:22;66.90;;;35.60;;
26435;SDS011;15351;52.408;16.826;2023-02-28T05:26:52;63.60;;;35.50;;
26435;SDS011;15351;52.408;16.826;2023-02-28T05:29:30;61.80;;;34.80;;
26435;SDS011;15351;52.408;16.826;2023-02-28T05:32:03;65.10;;;32.00;;
26435;SDS011;15351;52.408;16.826;2023-02-28T05:34:32;59.50;;;30.70;;
26435;SDS011;15351;52.408;16.826;2023-02-28T05:37:00;61.00;;;33.10;;
26435;SDS011;15351;52.408;16.826;2023-02-28T05:39:28;61.10;;;33.40;;
26435;SDS011;15351;52.408;16.826;2023-02-28T05:41:55;65.60;;;34.70;;
26435;SDS011;15351;52.408;16.826;2023-02-28T05:44:23;65.60;;;34.50;;
26435;SDS011;15351;52.408;16.826;2023-02-28T05:46:52;58.20;;;32.80;;
26435;SDS011;15351;52.408;16.826;2023-02-28T05:49:18;62.20;;;31.60;;
26435;SDS011;15351;52.408;16.826;2023-02-28T05:51:52;59.90;;;29.10;;
26435;SDS011;15351;52.408;16.826;2023-02-28T05:54:19;54.50;;;30.60;;
26435;SDS011;15351;52.408;16.826;2023-02-28T05:56:46;56.90;;;31.70;;
26435;SDS011;15351;52.408;16.826;2023-02-28T05:59:14;65.90;;;32.70;;
26435;SDS011;15351;52.408;16.826;2023-02-28T06:01:43;59.50;;;31.50;;
26435;SDS011;15351;52.408;16.826;2023-02-28T06:04:34;64.60;;;32.60;;
26435;SDS011;15351;52.408;16.826;2023-02-28T06:07:08;73.20;;;32.40;;
26435;SDS011;15351;52.408;16.826;2023-02-28T06:09:35;63.20;;;32.30;;
26435;SDS011;15351;52.408;16.826;2023-02-28T06:12:14;62.50;;;34.10;;
26435;SDS011;15351;52.408;16.826;2023-02-28T06:14:49;64.80;;;36.10;;
26435;SDS011;15351;52.408;16.826;2023-02-28T06:17:24;63.70;;;35.90;;
26435;SDS011;15351;52.408;16.826;2023-02-28T06:19:51;63.70;;;35.70;;
26435;SDS011;15351;52.408;16.826;2023-02-28T06:22:22;64.10;;;31.70;;
26435;SDS011;15351;52.408;16.826;2023-02-28T06:24:50;63.80;;;30.40;;
26435;SDS011;15351;52.408;16.826;2023-02-28T06:27:22;59.50;;;34.50;;
26435;SDS011;15351;52.408;16.826;2023-02-28T06:29:53;64.70;;;34.90;;
26435;SDS011;15351;52.408;16.826;2023-02-28T06:32:26;58.50;;;34.50;;
26435;SDS011;15351;52.408;16.826;2023-02-28T06:34:56;58.80;;;34.80;;
26435;SDS011;15351;52.408;16.826;2023-02-28T06:37:32;63.90;;;32.30;;
26435;SDS011;15351;52.408;16.826;2023-02-28T06:40:02;67.20;;;30.90;;
26435;SDS011;15351;52.408;16.826;2023-02-28T06:42:32;58.60;;;33.70;;
26435;SDS011;15351;52.408;16.826;2023-02-28T06:45:02;65.40;;;35.40;;
26435;SDS011;15351;52.408;16.826;2023-02-28T06:47:37;60.50;;;33.90;;
26435;SDS011;15351;52.408;16.826;2023-02-28T06:50:06;61.80;;;31.50;;
26435;SDS011;15351;52.408;16.826;2023-02-28T06:52:37;61.10;;;30.60;;
26435;SDS011;15351;52.408;16.826;2023-02-28T06:55:04;51.80;;;29.50;;
26435;SDS011;15351;52.408;16.826;2023-02-28T06:57:34;55.60;;;31.60;;
26435;SDS011;15351;52.408;16.826;2023-02-28T07:00:10;54.10;;;31.70;;
26435;SDS011;15351;52.408;16.826;2023-02-28T07:02:42;54.30;;;33.70;;
26435;SDS011;15351;52.408;16.826;2023-02-28T07:05:41;57.30;;;29.30;;
26435;SDS011;15351;52.408;16.826;2023-02-28T07:08:11;57.80;;;28.50;;
26435;SDS011;15351;52.408;16.826;2023-02-28T07:10:43;48.70;;;30.00;;
26435;SDS011;15351;52.408;16.826;2023-02-28T07:13:11;50.80;;;30.40;;
26435;SDS011;15351;52.408;16.826;2023-02-28T07:16:06;55.10;;;31.70;;
26435;SDS011;15351;52.408;16.826;2023-02-28T07:18:44;56.40;;;29.40;;
26435;SDS011;15351;52.408;16.826;2023-02-28T07:21:15;53.40;;;27.10;;
26435;SDS011;15351;52.408;16.826;2023-02-28T07:23:45;51.70;;;29.30;;
26435;SDS011;15351;52.408;16.826;2023-02-28T07:26:19;51.40;;;31.60;;
26435;SDS011;15351;52.408;16.826;2023-02-28T07:28:50;50.20;;;30.70;;
26435;SDS011;15351;52.408;16.826;2023-02-28T07:31:24;53.00;;;30.70;;
26435;SDS011;15351;52.408;16.826;2023-02-28T07:34:03;55.80;;;29.90;;
26435;SDS011;15351;52.408;16.826;2023-02-28T07:36:32;56.80;;;31.20;;
26435;SDS011;15351;52.408;16.826;2023-02-28T07:39:02;48.20;;;27.70;;
26435;SDS011;15351;52.408;16.826;2023-02-28T07:41:37;44.00;;;26.70;;
26435;SDS011;15351;52.408;16.826;2023-02-28T07:44:12;43.00;;;25.60;;
26435;SDS011;15351;52.408;16.826;2023-02-28T07:46:38;54.10;;;28.30;;
26435;SDS011;15351;52.408;16.826;2023-02-28T07:49:26;51.20;;;26.90;;
26435;SDS011;15351;52.408;16.826;2023-02-28T07:51:54;41.50;;;24.00;;
26435;SDS011;15351;52.408;16.826;2023-02-28T07:54:26;40.30;;;23.90;;
26435;SDS011;15351;52.408;16.826;2023-02-28T07:56:55;37.90;;;22.90;;
26435;SDS011;15351;52.408;16.826;2023-02-28T07:59:35;42.00;;;24.70;;
26435;SDS011;15351;52.408;16.826;2023-02-28T08:02:15;42.40;;;22.60;;
26435;SDS011;15351;52.408;16.826;2023-02-28T08:04:47;42.60;;;23.30;;
26435;SDS011;15351;52.408;16.826;2023-02-28T08:07:15;38.90;;;25.20;;
26435;SDS011;15351;52.408;16.826;2023-02-28T08:09:51;39.60;;;23.90;;
26435;SDS011;15351;52.408;16.826;2023-02-28T08:12:38;38.30;;;23.40;;
26435;SDS011;15351;52.408;16.826;2023-02-28T08:15:09;35.60;;;22.00;;
26435;SDS011;15351;52.408;16.826;2023-02-28T08:17:54;31.20;;;19.60;;
26435;SDS011;15351;52.408;16.826;2023-02-28T08:20:38;30.70;;;19.00;;
26435;SDS011;15351;52.408;16.826;2023-02-28T08:23:04;40.20;;;30.60;;
26435;SDS011;15351;52.408;16.826;2023-02-28T08:25:30;40.40;;;29.30;;
26435;SDS011;15351;52.408;16.826;2023-02-28T08:27:57;29.30;;;19.20;;
26435;SDS011;15351;52.408;16.826;2023-02-28T08:30:26;29.20;;;17.10;;
26435;SDS011;15351;52.408;16.826;2023-02-28T08:32:53;26.00;;;17.40;;
26435;SDS011;15351;52.408;16.826;2023-02-28T08:35:24;26.40;;;16.90;;
26435;SDS011;15351;52.408;16.826;2023-02-28T08:37:51;29.00;;;17.10;;
26435;SDS011;15351;52.408;16.826;2023-02-28T08:40:24;26.60;;;17.00;;
26435;SDS011;15351;52.408;16.826;2023-02-28T08:43:14;26.70;;;17.40;;
26435;SDS011;15351;52.408;16.826;2023-02-28T08:45:44;24.40;;;16.30;;
26435;SDS011;15351;52.408;16.826;2023-02-28T08:48:29;28.70;;;17.60;;
26435;SDS011;15351;52.408;16.826;2023-02-28T08:51:08;25.00;;;16.60;;
26435;SDS011;15351;52.408;16.826;2023-02-28T08:53:37;26.40;;;16.20;;
26435;SDS011;15351;52.408;16.826;2023-02-28T08:56:06;25.20;;;16.50;;
26435;SDS011;15351;52.408;16.826;2023-02-28T08:58:35;23.50;;;15.30;;
26435;SDS011;15351;52.408;16.826;2023-02-28T09:01:09;24.40;;;14.70;;
26435;SDS011;15351;52.408;16.826;2023-02-28T09:03:45;30.50;;;19.60;;
26435;SDS011;15351;52.408;16.826;2023-02-28T09:06:15;31.20;;;22.30;;
26435;SDS011;15351;52.408;16.826;2023-02-28T09:09:12;29.30;;;19.20;;
26435;SDS011;15351;52.408;16.826;2023-02-28T09:11:40;24.50;;;16.10;;
26435;SDS011;15351;52.408;16.826;2023-02-28T09:14:08;24.40;;;15.50;;
26435;SDS011;15351;52.408;16.826;2023-02-28T09:16:36;23.30;;;14.80;;
26435;SDS011;15351;52.408;16.826;2023-02-28T09:19:06;23.50;;;15.50;;
26435;SDS011;15351;52.408;16.826;2023-02-28T09:21:37;26.40;;;16.10;;
26435;SDS011;15351;52.408;16.826;2023-02-28T09:24:11;23.50;;;16.60;;
26435;SDS011;15351;52.408;16.826;2023-02-28T09:26:48;26.50;;;16.70;;
26435;SDS011;15351;52.408;16.826;2023-02-28T09:29:14;28.30;;;15.30;;
26435;SDS011;15351;52.408;16.826;2023-02-28T09:31:42;22.90;;;16.10;;
26435;SDS011;15351;52.408;16.826;2023-02-28T09:34:13;24.90;;;16.00;;
26435;SDS011;15351;52.408;16.826;2023-02-28T09:36:44;26.00;;;14.70;;
26435;SDS011;15351;52.408;16.826;2023-02-28T09:39:22;26.90;;;16.20;;
26435;SDS011;15351;52.408;16.826;2023-02-28T09:42:13;26.40;;;15.80;;
26435;SDS011;15351;52.408;16.826;2023-02-28T09:44:50;25.50;;;17.70;;
26435;SDS011;15351;52.408;16.826;2023-02-28T09:53:16;27.10;;;18.20;;
26435;SDS011;15351;52.408;16.826;2023-02-28T09:56:21;26.70;;;15.20;;
26435;SDS011;15351;52.408;16.826;2023-02-28T10:04:47;16.10;;;11.20;;
26435;SDS011;15351;52.408;16.826;2023-02-28T10:07:30;25.00;;;14.50;;
26435;SDS011;15351;52.408;16.826;2023-02-28T10:13:17;21.90;;;14.20;;
26435;SDS011;15351;52.408;16.826;2023-02-28T10:15:56;20.50;;;13.90;;
26435;SDS011;15351;52.408;16.826;2023-02-28T10:18:41;20.70;;;14.00;;
26435;SDS011;15351;52.408;16.826;2023-02-28T10:21:30;17.90;;;12.20;;
26435;SDS011;15351;52.408;16.826;2023-02-28T10:24:26;17.00;;;10.10;;
26435;SDS011;15351;52.408;16.826;2023-02-28T10:26:56;16.20;;;10.40;;
26435;SDS011;15351;52.408;16.826;2023-02-28T10:29:31;17.40;;;10.70;;
26435;SDS011;15351;52.408;16.826;2023-02-28T10:32:01;17.40;;;10.90;;
26435;SDS011;15351;52.408;16.826;2023-02-28T10:34:53;16.20;;;10.60;;
26435;SDS011;15351;52.408;16.826;2023-02-28T10:37:23;16.40;;;10.30;;
26435;SDS011;15351;52.408;16.826;2023-02-28T10:39:55;27.90;;;11.90;;
26435;SDS011;15351;52.408;16.826;2023-02-28T10:42:29;20.10;;;12.20;;
26435;SDS011;15351;52.408;16.826;2023-02-28T10:45:15;17.40;;;10.80;;
26435;SDS011;15351;52.408;16.826;2023-02-28T10:47:56;14.60;;;9.80;;
26435;SDS011;15351;52.408;16.826;2023-02-28T10:50:56;15.30;;;10.10;;
26435;SDS011;15351;52.408;16.826;2023-02-28T10:53:28;13.60;;;9.60;;
26435;SDS011;15351;52.408;16.826;2023-02-28T11:01:22;16.30;;;11.50;;
26435;SDS011;15351;52.408;16.826;2023-02-28T11:04:32;22.50;;;15.90;;
26435;SDS011;15351;52.408;16.826;2023-02-28T11:07:25;23.00;;;15.90;;
26435;SDS011;15351;52.408;16.826;2023-02-28T11:10:21;19.10;;;11.90;;
26435;SDS011;15351;52.408;16.826;2023-02-28T11:13:12;17.10;;;11.50;;
26435;SDS011;15351;52.408;16.826;2023-02-28T11:15:58;17.90;;;12.30;;
26435;SDS011;15351;52.408;16.826;2023-02-28T11:18:30;16.20;;;12.00;;
26435;SDS011;15351;52.408;16.826;2023-02-28T11:21:26;17.20;;;11.80;;
26435;SDS011;15351;52.408;16.826;2023-02-28T11:35:49;12.30;;;9.10;;
26435;SDS011;15351;52.408;16.826;2023-02-28T11:38:18;13.10;;;8.90;;
26435;SDS011;15351;52.408;16.826;2023-02-28T11:41:02;15.10;;;9.60;;
26435;SDS011;15351;52.408;16.826;2023-02-28T11:46:44;14.50;;;10.00;;
26435;SDS011;15351;52.408;16.826;2023-02-28T11:53:17;16.20;;;10.90;;
26435;SDS011;15351;52.408;16.826;2023-02-28T11:56:01;16.90;;;10.60;;
26435;SDS011;15351;52.408;16.826;2023-02-28T12:04:42;17.40;;;10.70;;
26435;SDS011;15351;52.408;16.826;2023-02-28T12:10:21;16.90;;;10.50;;
26435;SDS011;15351;52.408;16.826;2023-02-28T12:19:16;16.00;;;10.80;;
26435;SDS011;15351;52.408;16.826;2023-02-28T12:28:32;12.90;;;9.40;;
26435;SDS011;15351;52.408;16.826;2023-02-28T12:31:23;17.80;;;10.60;;
26435;SDS011;15351;52.408;16.826;2023-02-28T12:34:03;17.30;;;10.40;;
26435;SDS011;15351;52.408;16.826;2023-02-28T12:36:42;13.50;;;9.70;;
26435;SDS011;15351;52.408;16.826;2023-02-28T12:39:18;13.90;;;9.90;;
26435;SDS011;15351;52.408;16.826;2023-02-28T12:44:45;17.70;;;11.00;;
26435;SDS011;15351;52.408;16.826;2023-02-28T12:47:18;14.80;;;10.10;;
26435;SDS011;15351;52.408;16.826;2023-02-28T12:49:46;16.00;;;10.60;;
26435;SDS011;15351;52.408;16.826;2023-02-28T12:55:47;16.10;;;11.70;;
26435;SDS011;15351;52.408;16.826;2023-02-28T12:58:31;16.30;;;10.30;;
26435;SDS011;15351;52.408;16.826;2023-02-28T13:06:43;14.40;;;9.70;;
26435;SDS011;15351;52.408;16.826;2023-02-28T13:09:15;15.80;;;10.20;;
26435;SDS011;15351;52.408;16.826;2023-02-28T13:11:46;13.30;;;9.10;;
26435;SDS011;15351;52.408;16.826;2023-02-28T13:14:37;14.20;;;10.30;;
26435;SDS011;15351;52.408;16.826;2023-02-28T13:17:26;15.90;;;10.20;;
26435;SDS011;15351;52.408;16.826;2023-02-28T13:20:21;17.30;;;10.90;;
26435;SDS011;15351;52.408;16.826;2023-02-28T13:26:18;15.50;;;10.70;;
26435;SDS011;15351;52.408;16.826;2023-02-28T13:35:37;16.30;;;10.40;;
26435;SDS011;15351;52.408;16.826;2023-02-28T13:38:21;16.00;;;10.50;;
26435;SDS011;15351;52.408;16.826;2023-02-28T13:49:35;15.50;;;9.80;;
26435;SDS011;15351;52.408;16.826;2023-02-28T14:01:00;15.30;;;9.20;;
26435;SDS011;15351;52.408;16.826;2023-02-28T14:07:18;16.20;;;9.90;;
26435;SDS011;15351;52.408;16.826;2023-02-28T14:10:46;13.30;;;9.90;;
26435;SDS011;15351;52.408;16.826;2023-02-28T14:13:43;14.00;;;9.60;;
26435;SDS011;15351;52.408;16.826;2023-02-28T14:20:00;14.00;;;9.60;;
26435;SDS011;15351;52.408;16.826;2023-02-28T14:22:46;15.70;;;9.50;;
26435;SDS011;15351;52.408;16.826;2023-02-28T14:25:47;16.10;;;9.90;;
26435;SDS011;15351;52.408;16.826;2023-02-28T14:38:26;15.00;;;9.40;;
26435;SDS011;15351;52.408;16.826;2023-02-28T14:41:33;16.00;;;9.70;;
26435;SDS011;15351;52.408;16.826;2023-02-28T14:46:44;12.80;;;8.90;;
26435;SDS011;15351;52.408;16.826;2023-02-28T14:49:35;13.40;;;8.60;;
26435;SDS011;15351;52.408;16.826;2023-02-28T14:52:35;11.90;;;8.20;;
26435;SDS011;15351;52.408;16.826;2023-02-28T14:55:10;13.30;;;7.80;;
26435;SDS011;15351;52.408;16.826;2023-02-28T14:57:43;14.90;;;8.50;;
26435;SDS011;15351;52.408;16.826;2023-02-28T15:03:33;12.20;;;7.90;;
26435;SDS011;15351;52.408;16.826;2023-02-28T15:09:23;13.40;;;8.80;;
26435;SDS011;15351;52.408;16.826;2023-02-28T15:12:16;16.40;;;9.60;;
26435;SDS011;15351;52.408;16.826;2023-02-28T15:14:44;17.00;;;9.80;;
26435;SDS011;15351;52.408;16.826;2023-02-28T15:17:33;14.50;;;9.90;;
26435;SDS011;15351;52.408;16.826;2023-02-28T15:20:41;15.30;;;9.50;;
26435;SDS011;15351;52.408;16.826;2023-02-28T15:23:40;14.70;;;9.50;;
26435;SDS011;15351;52.408;16.826;2023-02-28T15:29:48;14.80;;;10.30;;
26435;SDS011;15351;52.408;16.826;2023-02-28T15:32:31;15.00;;;10.30;;
26435;SDS011;15351;52.408;16.826;2023-02-28T15:38:15;16.90;;;9.70;;
26435;SDS011;15351;52.408;16.826;2023-02-28T15:43:31;15.60;;;9.60;;
26435;SDS011;15351;52.408;16.826;2023-02-28T15:46:02;17.00;;;10.20;;
26435;SDS011;15351;52.408;16.826;2023-02-28T15:48:35;14.80;;;9.80;;
26435;SDS011;15351;52.408;16.826;2023-02-28T15:51:46;16.00;;;10.30;;
26435;SDS011;15351;52.408;16.826;2023-02-28T15:54:23;18.00;;;11.80;;
26435;SDS011;15351;52.408;16.826;2023-02-28T15:56:56;17.90;;;11.90;;
26435;SDS011;15351;52.408;16.826;2023-02-28T15:59:30;18.70;;;11.70;;
26435;SDS011;15351;52.408;16.826;2023-02-28T16:02:18;17.70;;;11.50;;
26435;SDS011;15351;52.408;16.826;2023-02-28T16:07:39;18.70;;;12.00;;
26435;SDS011;15351;52.408;16.826;2023-02-28T16:10:10;20.10;;;12.60;;
26435;SDS011;15351;52.408;16.826;2023-02-28T16:12:44;20.60;;;13.30;;
26435;SDS011;15351;52.408;16.826;2023-02-28T16:15:48;24.90;;;15.60;;
26435;SDS011;15351;52.408;16.826;2023-02-28T16:18:11;24.90;;;16.20;;
26435;SDS011;15351;52.408;16.826;2023-02-28T16:20:39;22.90;;;15.30;;
26435;SDS011;15351;52.408;16.826;2023-02-28T16:23:11;22.80;;;14.70;;
26435;SDS011;15351;52.408;16.826;2023-02-28T16:25:39;24.30;;;15.10;;
26435;SDS011;15351;52.408;16.826;2023-02-28T16:28:19;22.30;;;14.60;;
26435;SDS011;15351;52.408;16.826;2023-02-28T16:30:51;26.00;;;15.80;;
26435;SDS011;15351;52.408;16.826;2023-02-28T16:33:19;26.50;;;17.40;;
26435;SDS011;15351;52.408;16.826;2023-02-28T16:35:46;24.30;;;16.30;;
26435;SDS011;15351;52.408;16.826;2023-02-28T16:38:15;23.80;;;15.40;;
26435;SDS011;15351;52.408;16.826;2023-02-28T16:40:42;24.90;;;15.70;;
26435;SDS011;15351;52.408;16.826;2023-02-28T16:43:17;26.20;;;16.00;;
26435;SDS011;15351;52.408;16.826;2023-02-28T16:46:07;29.90;;;17.50;;
26435;SDS011;15351;52.408;16.826;2023-02-28T16:48:37;31.40;;;16.90;;
26435;SDS011;15351;52.408;16.826;2023-02-28T16:51:14;29.60;;;16.90;;
26435;SDS011;15351;52.408;16.826;2023-02-28T16:54:07;28.80;;;17.30;;
26435;SDS011;15351;52.408;16.826;2023-02-28T16:56:51;30.20;;;16.70;;
26435;SDS011;15351;52.408;16.826;2023-02-28T16:59:19;30.40;;;16.60;;
26435;SDS011;15351;52.408;16.826;2023-02-28T17:01:51;28.80;;;16.50;;
26435;SDS011;15351;52.408;16.826;2023-02-28T17:04:41;28.90;;;16.60;;
26435;SDS011;15351;52.408;16.826;2023-02-28T17:07:27;28.20;;;16.70;;
26435;SDS011;15351;52.408;16.826;2023-02-28T17:09:53;35.70;;;19.00;;
26435;SDS011;15351;52.408;16.826;2023-02-28T17:12:19;31.30;;;19.50;;
26435;SDS011;15351;52.408;16.826;2023-02-28T17:14:48;34.60;;;21.20;;
26435;SDS011;15351;52.408;16.826;2023-02-28T17:17:20;36.40;;;23.80;;
26435;SDS011;15351;52.408;16.826;2023-02-28T17:19:49;38.30;;;25.10;;
26435;SDS011;15351;52.408;16.826;2023-02-28T17:22:18;42.40;;;27.30;;
26435;SDS011;15351;52.408;16.826;2023-02-28T17:24:45;38.70;;;27.30;;
26435;SDS011;15351;52.408;16.826;2023-02-28T17:27:24;38.70;;;25.10;;
26435;SDS011;15351;52.408;16.826;2023-02-28T17:29:53;47.90;;;23.80;;
26435;SDS011;15351;52.408;16.826;2023-02-28T17:32:21;42.90;;;23.20;;
26435;SDS011;15351;52.408;16.826;2023-02-28T17:34:48;38.50;;;24.10;;
26435;SDS011;15351;52.408;16.826;2023-02-28T17:37:17;40.30;;;24.50;;
26435;SDS011;15351;52.408;16.826;2023-02-28T17:39:45;39.00;;;23.80;;